NCAR-RAP Real-Time Weather Data

Output produced by METARs form (06 May 2021  16:06 UTC)
found at http://weather.rap.ucar.edu/surface/
 
KMYF 061553Z 00000KT 8SM OVC012 16/12 A3004 RMK AO2 SLP171 T01610122
KMYF 061453Z 00000KT 8SM OVC011 16/12 A3004 RMK AO2 SLP168 T01560122 51011
KMYF 061353Z 00000KT 8SM OVC009 15/12 A3003 RMK AO2 SLP166 T01500122
KMYF 061253Z 00000KT 9SM OVC008 15/12 A3001 RMK AO2 SLP160 T01500122
KMYF 061153Z AUTO 22003KT 8SM OVC008 15/12 A3000 RMK AO2 SLP157 T01500122 10156 20150 53003
KMYF 061053Z AUTO 22003KT 8SM OVC009 15/12 A2999 RMK AO2 SLP153 T01500122
KMYF 061036Z AUTO 20003KT 8SM OVC009 16/12 A2999 RMK AO2 T01560122
KMYF 060953Z AUTO 23004KT 9SM OVC010 16/12 A2999 RMK AO2 SLP152 T01560122
KMYF 060853Z AUTO 00000KT 9SM OVC010 16/12 A2999 RMK AO2 SLP153 T01560122 58012
KMYF 060753Z AUTO 00000KT 9SM OVC010 16/12 A3002 RMK AO2 SLP160 T01560122 402670139
KMYF 060653Z AUTO 00000KT 9SM OVC010 16/12 A3003 RMK AO2 SLP165 T01560122
KMYF 060553Z AUTO 19005KT 10SM OVC010 16/12 A3003 RMK AO2 SLP165 T01560122 10206 20156 51018
KMYF 060453Z AUTO VRB04KT 10SM OVC010 16/12 A3002 RMK AO2 SLP163 T01560122
KMYF 060444Z AUTO 26004KT 10SM BKN010 16/12 A3001 RMK AO2 T01560122
KMYF 060353Z 25004KT 10SM CLR 16/12 A2999 RMK AO2 SLP154 T01560122